This is the latest recevied weather packets stored in our database for station/object KA3BQE-13. If no packets are shown the sender has not sent any weather packets the latest 10 day(s).
| Time | Temp. | Humidity | Pressure | Rain* | Wind** | Luminosity | Snow |
|---|---|---|---|---|---|---|---|
| 1777106572 | 10.56° C | 84% | 1012.7 hPa | 0 mm | - | 0 W/m² | - |
| 1777106268 | 10.56° C | 84% | 1012.7 hPa | 0 mm | - | 0 W/m² | - |
| 1777105964 | 11.11° C | 82% | 1012.7 hPa | 0 mm | - | 0 W/m² | - |
| 1777105661 | 11.11° C | 81% | 1012.7 hPa | 0 mm | - | 0 W/m² | - |
| 1777105357 | 11.11° C | 81% | 1012.7 hPa | 0 mm | - | 0 W/m² | - |
| 1777105052 | 11.67° C | 80% | 1012.6 hPa | 0 mm | - | 0 W/m² | - |
| 1777104751 | 11.11° C | 82% | 1012.6 hPa | 0 mm | - | 0 W/m² | - |
| 1777104447 | 11.11° C | 81% | 1012.6 hPa | 0 mm | - | 0 W/m² | - |
| 1777104141 | 11.11° C | 82% | 1012.5 hPa | 0 mm | - | 0 W/m² | - |
| 1777103838 | 10.56° C | 82% | 1012.3 hPa | 0 mm | - | 0 W/m² | - |
| 1777103536 | 10.56° C | 83% | 1012.5 hPa | 0 mm | - | 0 W/m² | - |
| 1777103232 | 11.11° C | 81% | 1012.5 hPa | 0 mm | - | 0 W/m² | - |
| 1777102930 | 11.11° C | 81% | 1012.5 hPa | 0 mm | - | 0 W/m² | - |
| 1777102627 | 11.11° C | 82% | 1012.4 hPa | 0 mm | - | 0 W/m² | - |
| 1777102322 | 11.11° C | 81% | 1012.4 hPa | 0 mm | - | 0 W/m² | - |
| 1777102017 | 11.11° C | 81% | 1012.4 hPa | 0 mm | - | 0 W/m² | - |
| 1777101715 | 11.11° C | 81% | 1012.4 hPa | 0 mm | - | 0 W/m² | - |
| 1777101410 | 11.11° C | 81% | 1012.4 hPa | 0 mm | - | 0 W/m² | - |
| 1777101108 | 11.11° C | 81% | 1012.3 hPa | 0 mm | - | 0 W/m² | - |
| 1777100804 | 11.11° C | 81% | 1012.4 hPa | 0 mm | - | 0 W/m² | - |
| 1777100500 | 11.67° C | 80% | 1012.5 hPa | 0 mm | - | 0 W/m² | - |
| 1777100197 | 12.22° C | 77% | 1012.6 hPa | 0 mm | - | 0 W/m² | - |
| 1777099895 | 12.22° C | 76% | 1012.5 hPa | 0 mm | - | 0 W/m² | - |
| 1777099594 | 12.78° C | 76% | 1012.5 hPa | 0 mm | - | 0 W/m² | - |
| 1777099291 | 12.78° C | 75% | 1012.4 hPa | 0 mm | - | 0 W/m² | - |
* Rain latest hour (hover to see other rain measurements)
** Current wind speed in m/s (hover to see current wind gust speed)